createdAt,value
2023-05-24T00:01:42.502Z,3.60
2023-05-24T00:03:51.636Z,3.60
2023-05-24T00:06:00.582Z,3.63
2023-05-24T00:08:09.200Z,3.97
2023-05-24T00:10:18.046Z,4.07
2023-05-24T00:12:28.819Z,3.70
2023-05-24T00:14:37.690Z,4.23
2023-05-24T00:16:47.006Z,3.77
2023-05-24T00:18:55.673Z,3.83
2023-05-24T00:21:04.674Z,3.97
2023-05-24T00:23:13.384Z,3.63
2023-05-24T00:25:22.137Z,3.53
2023-05-24T00:27:33.087Z,3.83
2023-05-24T00:29:42.293Z,3.70
2023-05-24T00:31:51.233Z,4.20
2023-05-24T00:34:00.191Z,3.43
2023-05-24T00:36:09.742Z,4.03
2023-05-24T00:38:19.143Z,3.93
2023-05-24T00:40:27.753Z,3.60
2023-05-24T00:42:38.064Z,4.27
2023-05-24T00:44:47.406Z,3.70
2023-05-24T00:46:56.283Z,4.00
2023-05-24T00:49:06.428Z,3.60
2023-05-24T00:51:16.445Z,3.87
2023-05-24T00:53:25.222Z,3.83
2023-05-24T00:55:36.765Z,3.80
2023-05-24T00:57:47.283Z,3.70
2023-05-24T00:59:56.788Z,3.80
2023-05-24T01:02:05.779Z,4.60
2023-05-24T01:04:14.957Z,3.70
2023-05-24T01:06:25.369Z,3.43
2023-05-24T01:08:44.541Z,3.50
2023-05-24T01:10:57.560Z,3.60
2023-05-24T01:13:14.576Z,4.30
2023-05-24T01:15:26.640Z,4.10
2023-05-24T01:17:38.750Z,3.60
2023-05-24T01:19:53.638Z,3.70
2023-05-24T01:22:12.432Z,3.50
2023-05-24T01:24:27.315Z,3.63
2023-05-24T01:26:40.492Z,4.10
2023-05-24T01:28:51.689Z,4.30
2023-05-24T01:31:00.688Z,4.10
2023-05-24T01:33:09.874Z,3.47
2023-05-24T01:35:18.711Z,3.80
2023-05-24T01:37:27.369Z,3.80
2023-05-24T01:39:36.528Z,4.10
2023-05-24T01:41:48.383Z,3.90
2023-05-24T01:44:03.183Z,3.67
2023-05-24T01:46:15.861Z,4.00
2023-05-24T01:48:30.079Z,3.80
2023-05-24T01:50:47.930Z,3.60
2023-05-24T01:52:57.610Z,4.30
2023-05-24T01:55:07.055Z,3.63
2023-05-24T01:57:16.468Z,3.83
2023-05-24T01:59:28.523Z,4.30
2023-05-24T02:01:37.685Z,4.50
2023-05-24T02:03:47.267Z,4.50
2023-05-24T02:05:56.326Z,4.07
2023-05-24T02:08:05.038Z,3.67
2023-05-24T02:10:13.997Z,4.20
2023-05-24T02:12:22.648Z,4.33
2023-05-24T02:14:33.603Z,4.23
2023-05-24T02:16:47.297Z,4.30
2023-05-24T02:18:56.288Z,4.17
2023-05-24T02:21:05.448Z,4.37
2023-05-24T02:23:14.088Z,3.63
2023-05-24T02:25:23.137Z,4.10
2023-05-24T02:27:31.912Z,4.37
2023-05-24T02:29:43.398Z,4.20
2023-05-24T02:31:56.412Z,4.50
2023-05-24T02:34:05.735Z,4.50
2023-05-24T02:36:14.676Z,4.33
2023-05-24T02:38:23.471Z,4.13
2023-05-24T02:40:32.114Z,4.00
2023-05-24T02:42:40.846Z,3.67
2023-05-24T02:44:52.852Z,4.43
2023-05-24T02:47:01.736Z,4.60
2023-05-24T02:49:11.453Z,4.70
2023-05-24T02:51:20.705Z,4.23
2023-05-24T02:53:30.505Z,4.33
2023-05-24T02:55:39.317Z,4.47
2023-05-24T02:57:49.187Z,4.57
2023-05-24T03:00:00.127Z,4.30
2023-05-24T03:02:08.693Z,4.50
2023-05-24T03:04:17.283Z,4.00
2023-05-24T03:06:26.218Z,4.67
2023-05-24T03:08:35.375Z,4.77
2023-05-24T03:10:44.514Z,4.70
2023-05-24T03:12:53.270Z,4.87
2023-05-24T03:15:03.414Z,4.87
2023-05-24T03:17:12.036Z,4.00
2023-05-24T03:19:20.680Z,3.80
2023-05-24T03:21:29.741Z,4.33
2023-05-24T03:23:38.725Z,4.23
2023-05-24T03:25:47.532Z,4.00
2023-05-24T03:27:56.137Z,4.07
2023-05-24T03:30:08.020Z,4.30
2023-05-24T03:32:16.860Z,4.37
2023-05-24T03:34:26.082Z,5.00
2023-05-24T03:36:34.974Z,4.43
2023-05-24T03:38:43.543Z,4.00
2023-05-24T03:40:52.532Z,4.70
2023-05-24T03:43:03.665Z,4.13
2023-05-24T03:45:19.427Z,4.40
2023-05-24T03:47:33.022Z,4.90
2023-05-24T03:49:41.536Z,4.80
2023-05-24T03:51:50.411Z,4.03
2023-05-24T03:53:59.183Z,4.80
2023-05-24T03:56:07.953Z,4.90
2023-05-24T03:58:16.576Z,4.57
2023-05-24T04:00:26.899Z,4.57
2023-05-24T04:02:38.464Z,4.27
2023-05-24T04:04:47.635Z,4.20
2023-05-24T04:06:56.527Z,4.23
2023-05-24T04:09:06.277Z,4.40
2023-05-24T04:11:15.337Z,4.67
2023-05-24T04:13:24.593Z,4.87
2023-05-24T04:15:34.646Z,4.53
2023-05-24T04:17:44.282Z,4.70
2023-05-24T04:19:53.118Z,4.57
2023-05-24T04:22:02.200Z,4.27
2023-05-24T04:24:10.790Z,4.83
2023-05-24T04:26:19.834Z,4.37
2023-05-24T04:28:28.481Z,4.20
2023-05-24T04:30:39.311Z,4.40
2023-05-24T04:32:48.655Z,4.70
2023-05-24T04:34:57.687Z,4.63
2023-05-24T04:37:06.720Z,4.27
2023-05-24T04:39:15.980Z,4.50
2023-05-24T04:41:24.877Z,4.27
2023-05-24T04:43:34.808Z,4.67
2023-05-24T04:45:45.140Z,4.60
2023-05-24T04:47:54.124Z,5.17
2023-05-24T04:50:03.741Z,4.33
2023-05-24T04:52:12.337Z,4.90
2023-05-24T04:54:21.499Z,4.30
2023-05-24T04:56:30.815Z,5.27
2023-05-24T04:58:40.250Z,4.70
2023-05-24T05:00:50.322Z,4.97
2023-05-24T05:02:59.560Z,4.60
2023-05-24T05:05:08.842Z,4.83
2023-05-24T05:07:17.590Z,3.90
2023-05-24T05:09:26.273Z,4.70
2023-05-24T05:11:34.878Z,4.90
2023-05-24T05:13:44.141Z,4.23
2023-05-24T05:15:55.247Z,4.50
2023-05-24T05:18:04.289Z,4.23
2023-05-24T05:20:13.344Z,4.27
2023-05-24T05:22:22.235Z,3.93
2023-05-24T05:24:31.630Z,4.40
2023-05-24T05:26:40.555Z,4.20
2023-05-24T05:28:49.481Z,3.43
2023-05-24T05:31:00.176Z,3.73
2023-05-24T05:33:09.479Z,4.07
2023-05-24T05:35:18.758Z,4.00
2023-05-24T05:37:27.709Z,4.07
2023-05-24T05:39:36.435Z,3.80
2023-05-24T05:41:46.806Z,3.60
2023-05-24T05:43:55.902Z,3.80
2023-05-24T05:46:06.384Z,3.50
2023-05-24T05:48:15.861Z,3.90
2023-05-24T05:50:25.375Z,3.60
2023-05-24T05:52:34.426Z,3.83
2023-05-24T05:54:43.074Z,3.50
2023-05-24T05:56:52.419Z,3.40
2023-05-24T05:59:01.300Z,3.30
2023-05-24T06:01:11.951Z,3.27
2023-05-24T06:03:21.503Z,2.97
2023-05-24T06:05:30.527Z,3.50
2023-05-24T06:07:39.180Z,3.67
2023-05-24T06:09:48.052Z,3.20
2023-05-24T06:11:56.891Z,2.70
2023-05-24T06:14:05.681Z,3.00
2023-05-24T06:16:16.588Z,2.97
2023-05-24T06:18:25.650Z,3.03
2023-05-24T06:20:34.501Z,3.10
2023-05-24T06:22:43.423Z,3.30
2023-05-24T06:24:52.915Z,3.27
2023-05-24T06:27:03.303Z,3.70
2023-05-24T06:29:14.330Z,3.17
2023-05-24T06:31:24.422Z,3.93
2023-05-24T06:33:34.516Z,3.20
2023-05-24T06:35:44.619Z,3.30
2023-05-24T06:37:53.522Z,3.40
2023-05-24T06:40:02.131Z,3.63
2023-05-24T06:42:11.168Z,3.10
2023-05-24T06:44:19.779Z,3.13
2023-05-24T06:46:30.251Z,3.20
2023-05-24T06:48:39.376Z,3.20
2023-05-24T06:50:48.257Z,3.33
2023-05-24T06:52:57.346Z,3.17
2023-05-24T06:55:06.943Z,3.53
2023-05-24T06:57:16.120Z,3.43
2023-05-24T06:59:25.163Z,3.70
2023-05-24T07:01:35.961Z,3.40
2023-05-24T07:03:44.550Z,3.53
2023-05-24T07:05:53.459Z,3.67
2023-05-24T07:08:02.609Z,4.23
2023-05-24T07:10:12.699Z,3.33
2023-05-24T07:12:21.641Z,3.30
2023-05-24T07:14:30.961Z,3.50
2023-05-24T07:16:41.363Z,4.30
2023-05-24T07:18:50.679Z,3.47
2023-05-24T07:21:00.352Z,3.30
2023-05-24T07:23:09.250Z,3.70
2023-05-24T07:25:18.017Z,3.40
2023-05-24T07:27:27.040Z,3.20
2023-05-24T07:29:36.295Z,3.40
2023-05-24T07:31:48.742Z,3.23
2023-05-24T07:33:57.992Z,3.10
2023-05-24T07:36:07.495Z,3.27
2023-05-24T07:38:16.375Z,3.00
2023-05-24T07:40:25.189Z,3.77
2023-05-24T07:42:33.982Z,3.30
2023-05-24T07:44:43.074Z,3.17
2023-05-24T07:46:55.214Z,3.30
2023-05-24T07:49:04.534Z,3.00
2023-05-24T07:51:13.310Z,3.33
2023-05-24T07:53:23.242Z,3.10
2023-05-24T07:55:32.105Z,3.30
2023-05-24T07:57:41.237Z,3.13
2023-05-24T07:59:50.076Z,3.00
2023-05-24T08:02:05.655Z,3.10
2023-05-24T08:04:14.839Z,2.97
2023-05-24T08:06:24.274Z,3.20
2023-05-24T08:08:33.749Z,3.00
2023-05-24T08:10:42.482Z,3.20
2023-05-24T08:12:51.697Z,3.17
2023-05-24T08:15:00.533Z,3.27
2023-05-24T08:17:11.105Z,3.17
2023-05-24T08:19:19.964Z,3.37
2023-05-24T08:21:29.637Z,3.10
2023-05-24T08:23:38.639Z,3.70
2023-05-24T08:25:47.510Z,3.23
2023-05-24T08:27:57.778Z,3.60
2023-05-24T08:30:07.216Z,3.33
2023-05-24T08:32:17.554Z,3.33
2023-05-24T08:34:26.996Z,3.27
2023-05-24T08:36:35.878Z,3.30
2023-05-24T08:38:44.657Z,3.63
2023-05-24T08:40:53.977Z,3.10
2023-05-24T08:43:03.251Z,3.70
2023-05-24T08:45:13.951Z,8.63
2023-05-24T08:47:24.745Z,8.53
2023-05-24T08:49:34.503Z,4.33
2023-05-24T08:51:43.428Z,3.83
2023-05-24T08:53:52.821Z,4.93
2023-05-24T08:56:02.009Z,5.27
2023-05-24T08:58:11.119Z,2.90
2023-05-24T09:00:20.744Z,3.27
2023-05-24T09:02:32.541Z,3.37
2023-05-24T09:04:41.740Z,3.00
2023-05-24T09:06:50.620Z,2.80
2023-05-24T09:09:01.368Z,3.00
2023-05-24T09:11:10.552Z,3.07
2023-05-24T09:13:19.618Z,3.37
2023-05-24T09:15:29.707Z,2.87
2023-05-24T09:17:41.063Z,3.30
2023-05-24T09:19:50.867Z,2.80
2023-05-24T09:21:59.827Z,3.23
2023-05-24T09:24:10.151Z,3.80
2023-05-24T09:26:19.384Z,3.23
2023-05-24T09:28:28.536Z,3.17
2023-05-24T09:30:38.737Z,3.07
2023-05-24T09:32:58.818Z,2.57
2023-05-24T09:35:12.072Z,3.03
2023-05-24T09:37:26.932Z,3.20
2023-05-24T09:39:37.979Z,3.20
2023-05-24T09:41:47.674Z,3.37
2023-05-24T09:43:56.615Z,3.20
2023-05-24T09:46:05.808Z,3.23
2023-05-24T09:48:17.439Z,3.10
2023-05-24T09:50:26.722Z,3.03
2023-05-24T09:52:38.687Z,3.37
2023-05-24T09:54:48.638Z,3.97
2023-05-24T09:56:57.406Z,3.60
2023-05-24T09:59:10.288Z,2.93
2023-05-24T10:01:20.891Z,3.20
2023-05-24T10:03:31.606Z,3.00
2023-05-24T10:05:40.574Z,2.90
2023-05-24T10:07:49.784Z,3.10
2023-05-24T10:09:59.956Z,3.17
2023-05-24T10:12:10.141Z,3.43
2023-05-24T10:14:20.044Z,3.23
2023-05-24T10:16:29.055Z,2.93
2023-05-24T10:18:39.875Z,2.87
2023-05-24T10:20:48.874Z,3.83
2023-05-24T10:23:03.304Z,3.27
2023-05-24T10:25:15.102Z,4.70
2023-05-24T10:27:25.459Z,4.47
2023-05-24T10:29:38.908Z,5.30
2023-05-24T10:31:48.500Z,6.33
2023-05-24T10:34:07.135Z,2.60
2023-05-24T10:36:17.439Z,2.77
2023-05-24T10:38:26.953Z,3.43
2023-05-24T10:40:36.269Z,3.00
2023-05-24T10:42:45.866Z,5.23
2023-05-24T10:44:55.269Z,3.27
2023-05-24T10:47:05.320Z,3.33
2023-05-24T10:49:16.208Z,2.67
2023-05-24T10:51:39.119Z,3.17
2023-05-24T10:53:48.023Z,3.17
2023-05-24T10:55:58.090Z,2.97
2023-05-24T10:58:08.313Z,5.93
2023-05-24T11:02:41.620Z,8.47
2023-05-24T11:04:52.005Z,9.87
2023-05-24T11:07:04.015Z,6.23
2023-05-24T11:09:13.380Z,6.30
2023-05-24T11:11:32.046Z,9.83
2023-05-24T11:13:41.555Z,8.23
2023-05-24T11:15:54.116Z,7.13
2023-05-24T11:18:20.623Z,5.67
2023-05-24T11:20:31.249Z,7.27
2023-05-24T11:22:41.888Z,5.43
2023-05-24T11:24:51.012Z,5.47
2023-05-24T11:27:00.400Z,7.07
2023-05-24T11:29:10.045Z,4.97
2023-05-24T11:31:19.005Z,3.77
2023-05-24T11:33:27.819Z,3.83
2023-05-24T11:35:39.027Z,4.33
2023-05-24T11:37:48.155Z,6.07
2023-05-24T11:39:57.235Z,8.50
2023-05-24T11:42:07.393Z,7.90
2023-05-24T11:44:18.744Z,6.93
2023-05-24T11:46:27.720Z,8.13
2023-05-24T11:48:36.809Z,6.60
2023-05-24T11:50:50.459Z,6.53
2023-05-24T11:53:04.453Z,3.50
2023-05-24T11:55:17.355Z,6.07
2023-05-24T11:57:32.232Z,6.47
2023-05-24T11:59:40.947Z,8.50
2023-05-24T12:01:49.923Z,6.97
2023-05-24T12:03:58.718Z,8.40
2023-05-24T12:06:09.643Z,3.73
2023-05-24T12:08:18.538Z,6.50
2023-05-24T12:10:27.023Z,8.67
2023-05-24T12:12:45.797Z,8.97
2023-05-24T12:14:57.586Z,10.67
2023-05-24T12:17:06.656Z,9.07
2023-05-24T12:19:31.855Z,7.57
2023-05-24T12:21:44.986Z,6.50
2023-05-24T12:23:54.127Z,7.93
2023-05-24T12:26:03.898Z,9.67
2023-05-24T12:28:13.180Z,8.60
2023-05-24T12:30:24.965Z,6.20
2023-05-24T12:32:34.123Z,8.73
2023-05-24T12:34:43.253Z,5.53
2023-05-24T12:36:53.960Z,6.80
2023-05-24T12:39:03.581Z,6.60
2023-05-24T12:41:14.701Z,6.10
2023-05-24T12:43:24.287Z,4.87
2023-05-24T12:45:33.266Z,6.63
2023-05-24T12:47:42.576Z,5.77
2023-05-24T12:49:52.093Z,5.53
2023-05-24T12:52:03.245Z,5.27
2023-05-24T12:54:12.396Z,5.33
2023-05-24T12:56:23.392Z,4.40
2023-05-24T12:58:32.117Z,4.50
2023-05-24T13:00:41.852Z,5.23
2023-05-24T13:02:53.056Z,5.27
2023-05-24T13:05:02.161Z,4.63
2023-05-24T13:07:13.083Z,4.13
2023-05-24T13:09:23.943Z,3.70
2023-05-24T13:11:33.352Z,4.03
2023-05-24T13:13:42.447Z,4.17
2023-05-24T13:15:51.540Z,3.60
2023-05-24T13:18:00.529Z,4.50
2023-05-24T13:20:11.575Z,3.60
2023-05-24T13:22:22.137Z,4.00
2023-05-24T13:24:31.401Z,4.10
2023-05-24T13:26:40.244Z,3.83
2023-05-24T13:29:11.870Z,3.90
2023-05-24T13:31:18.452Z,4.37
2023-05-24T13:33:27.376Z,4.80
2023-05-24T13:35:38.477Z,4.43
2023-05-24T13:37:48.795Z,4.50
2023-05-24T13:39:57.463Z,5.13
2023-05-24T13:42:06.743Z,4.93
2023-05-24T13:44:16.651Z,3.90
2023-05-24T13:46:25.595Z,4.17
2023-05-24T13:48:35.177Z,4.30
2023-05-24T13:50:45.247Z,4.57
2023-05-24T13:52:56.236Z,3.70
2023-05-24T13:55:06.186Z,3.80
2023-05-24T13:57:15.537Z,3.97
2023-05-24T13:59:24.735Z,3.93
2023-05-24T14:01:34.000Z,3.83
2023-05-24T14:03:43.504Z,4.43
2023-05-24T14:05:56.025Z,4.93
2023-05-24T14:08:07.162Z,4.10
2023-05-24T14:10:18.075Z,4.50
2023-05-24T14:12:29.569Z,4.37
2023-05-24T14:16:55.425Z,4.30
2023-05-24T14:19:04.399Z,4.20
2023-05-24T14:21:13.541Z,4.30
2023-05-24T14:23:24.343Z,4.20
2023-05-24T14:25:33.232Z,4.50
2023-05-24T14:27:44.278Z,4.20
2023-05-24T14:29:53.347Z,5.10
2023-05-24T14:32:02.066Z,4.20
2023-05-24T14:34:12.742Z,4.23
2023-05-24T14:36:22.143Z,4.00
2023-05-24T14:38:32.737Z,4.30
2023-05-24T14:40:42.434Z,4.40
2023-05-24T14:42:51.805Z,6.00
2023-05-24T14:45:00.659Z,5.20
2023-05-24T14:47:09.469Z,4.50
2023-05-24T14:49:18.915Z,4.33
2023-05-24T14:51:27.908Z,4.30
2023-05-24T14:53:38.146Z,3.80
2023-05-24T14:55:46.892Z,4.40
2023-05-24T14:57:56.342Z,4.03
2023-05-24T15:00:05.826Z,4.17
2023-05-24T15:02:14.923Z,4.33
2023-05-24T15:04:23.867Z,4.57
2023-05-24T15:06:35.227Z,4.33
2023-05-24T15:08:46.012Z,4.47
2023-05-24T15:10:56.687Z,4.50
2023-05-24T15:13:08.329Z,4.60
2023-05-24T15:15:17.366Z,4.50
2023-05-24T15:17:26.925Z,4.33
2023-05-24T15:19:36.088Z,4.40
2023-05-24T15:21:44.905Z,4.53
2023-05-24T15:23:55.633Z,4.90
2023-05-24T15:26:04.563Z,4.37
2023-05-24T15:28:15.192Z,4.33
2023-05-24T15:30:24.530Z,3.90
2023-05-24T15:32:33.786Z,4.50
2023-05-24T15:34:43.083Z,4.70
2023-05-24T15:36:52.781Z,4.20
2023-05-24T15:39:03.036Z,4.97
2023-05-24T15:41:11.794Z,4.20
2023-05-24T15:43:20.988Z,4.47
2023-05-24T15:45:30.000Z,4.53
2023-05-24T15:47:40.520Z,4.50
2023-05-24T15:49:50.101Z,4.23
2023-05-24T15:52:04.278Z,4.60
2023-05-24T15:54:15.183Z,4.90
2023-05-24T15:56:23.790Z,4.40
2023-05-24T15:58:32.445Z,4.60
2023-05-24T16:00:41.348Z,4.70
2023-05-24T16:02:50.678Z,4.33
2023-05-24T16:05:01.053Z,4.53
2023-05-24T16:07:09.890Z,4.43
2023-05-24T16:09:20.899Z,4.30
2023-05-24T16:11:30.063Z,4.53
2023-05-24T16:13:39.282Z,4.10
2023-05-24T16:15:51.549Z,4.70
2023-05-24T16:18:00.343Z,3.90
2023-05-24T16:20:09.452Z,4.77
2023-05-24T16:22:18.414Z,4.33
2023-05-24T16:24:29.397Z,4.13
2023-05-24T16:26:38.248Z,4.43
2023-05-24T16:28:46.961Z,4.33
2023-05-24T16:30:57.640Z,3.90
2023-05-24T16:33:06.939Z,3.83
2023-05-24T16:35:15.818Z,4.43
2023-05-24T16:37:25.263Z,3.80
2023-05-24T16:39:38.676Z,4.03
2023-05-24T16:41:47.998Z,7.17
2023-05-24T16:43:57.222Z,4.60
2023-05-24T16:46:05.885Z,3.77
2023-05-24T16:48:15.967Z,4.30
2023-05-24T16:50:24.596Z,4.13
2023-05-24T16:52:33.492Z,4.20
2023-05-24T16:54:43.889Z,6.20
2023-05-24T16:56:54.647Z,4.20
2023-05-24T16:59:03.455Z,5.20
2023-05-24T17:01:12.975Z,3.63
2023-05-24T17:03:28.358Z,4.10
2023-05-24T17:05:37.866Z,4.27
2023-05-24T17:07:46.689Z,3.97
2023-05-24T17:09:57.157Z,3.73
2023-05-24T17:12:07.056Z,4.20
2023-05-24T17:14:16.036Z,3.80
2023-05-24T17:16:25.173Z,3.90
2023-05-24T17:18:33.893Z,3.70
2023-05-24T17:20:43.029Z,3.60
2023-05-24T17:22:51.927Z,3.50
2023-05-24T17:25:03.132Z,3.60
2023-05-24T17:27:12.504Z,3.67
2023-05-24T17:29:21.275Z,3.60
2023-05-24T17:31:30.320Z,3.50
2023-05-24T17:33:39.137Z,3.57
2023-05-24T17:35:48.534Z,3.33
2023-05-24T17:37:57.405Z,3.80
2023-05-24T17:40:09.112Z,3.47
2023-05-24T17:42:18.369Z,3.63
2023-05-24T17:44:27.065Z,3.70
2023-05-24T17:46:38.992Z,3.90
2023-05-24T17:48:51.143Z,4.17
2023-05-24T17:51:01.411Z,3.50
2023-05-24T17:53:22.838Z,3.80
2023-05-24T17:55:41.284Z,3.40
2023-05-24T17:57:51.261Z,3.60
2023-05-24T17:59:59.933Z,3.20
2023-05-24T18:02:08.615Z,3.50
2023-05-24T18:04:17.652Z,3.40
2023-05-24T18:06:27.145Z,3.40
2023-05-24T18:08:37.874Z,3.47
2023-05-24T18:10:49.083Z,3.70
2023-05-24T18:12:58.454Z,3.70
2023-05-24T18:15:08.088Z,3.53
2023-05-24T18:17:17.181Z,3.70
2023-05-24T18:19:26.730Z,4.07
2023-05-24T18:21:35.721Z,3.63
2023-05-24T18:23:44.535Z,3.70
2023-05-24T18:26:01.375Z,4.20
2023-05-24T18:28:12.510Z,3.97
2023-05-24T18:30:21.505Z,3.50
2023-05-24T18:32:30.211Z,3.93
2023-05-24T18:34:38.947Z,3.80
2023-05-24T18:36:47.734Z,4.33
2023-05-24T18:38:56.691Z,3.53
2023-05-24T18:41:09.700Z,3.83
2023-05-24T18:43:18.677Z,4.03
2023-05-24T18:45:27.921Z,3.97
2023-05-24T18:47:36.978Z,4.13
2023-05-24T18:49:46.358Z,4.77
2023-05-24T18:51:55.568Z,4.77
2023-05-24T18:54:04.595Z,4.53
2023-05-24T18:56:14.997Z,5.50
2023-05-24T18:58:23.548Z,5.07
2023-05-24T19:00:32.208Z,4.83
2023-05-24T19:02:41.336Z,5.00
2023-05-24T19:04:52.287Z,4.90
2023-05-24T19:07:01.325Z,5.17
2023-05-24T19:09:10.800Z,4.93
2023-05-24T19:11:21.267Z,4.60
2023-05-24T19:13:30.205Z,5.13
2023-05-24T19:15:39.422Z,5.43
2023-05-24T19:17:49.515Z,4.40
2023-05-24T19:19:59.226Z,4.93
2023-05-24T19:22:08.512Z,4.40
2023-05-24T19:24:17.726Z,3.57
2023-05-24T19:26:27.903Z,3.93
2023-05-24T19:28:40.394Z,4.23
2023-05-24T19:30:49.419Z,3.77
2023-05-24T19:32:58.588Z,3.37
2023-05-24T19:35:08.467Z,3.70
2023-05-24T19:37:17.452Z,3.70
2023-05-24T19:39:26.817Z,3.43
2023-05-24T19:41:37.131Z,3.30
2023-05-24T19:43:45.777Z,3.67
2023-05-24T19:45:55.878Z,3.43
2023-05-24T19:48:05.746Z,3.90
2023-05-24T19:50:14.836Z,3.67
2023-05-24T19:52:24.011Z,4.13
2023-05-24T19:54:33.144Z,3.63
2023-05-24T19:56:43.608Z,3.93
2023-05-24T19:58:52.742Z,4.13
2023-05-24T20:01:01.608Z,3.77
2023-05-24T20:03:10.786Z,3.42
2023-05-24T20:05:19.640Z,3.63
2023-05-24T20:07:28.850Z,5.03
2023-05-24T20:09:38.033Z,5.03
2023-05-24T20:11:48.566Z,4.97
2023-05-24T20:13:59.029Z,4.73
2023-05-24T20:16:07.900Z,4.77
2023-05-24T20:18:16.886Z,5.57
2023-05-24T20:20:26.110Z,4.97
2023-05-24T20:22:34.736Z,4.53
2023-05-24T20:24:43.425Z,4.57
2023-05-24T20:26:53.790Z,4.87
2023-05-24T20:29:02.879Z,4.33
2023-05-24T20:31:12.013Z,4.30
2023-05-24T20:33:20.756Z,3.97
2023-05-24T20:35:29.629Z,3.93
2023-05-24T20:37:38.534Z,3.80
2023-05-24T20:39:47.434Z,4.40
2023-05-24T20:41:58.464Z,3.77
2023-05-24T20:44:07.166Z,3.73
2023-05-24T20:46:16.860Z,3.70
2023-05-24T20:48:26.046Z,3.57
2023-05-24T20:50:34.671Z,4.00
2023-05-24T20:52:43.771Z,3.30
2023-05-24T20:54:52.589Z,3.70
2023-05-24T20:57:02.984Z,3.57
2023-05-24T20:59:12.074Z,3.50
2023-05-24T21:01:21.398Z,3.67
2023-05-24T21:03:30.423Z,3.80
2023-05-24T21:05:40.556Z,3.50
2023-05-24T21:07:49.373Z,3.80
2023-05-24T21:09:58.656Z,3.77
2023-05-24T21:12:09.683Z,3.53
2023-05-24T21:14:18.720Z,4.13
2023-05-24T21:16:28.384Z,3.80
2023-05-24T21:18:37.021Z,4.20
2023-05-24T21:20:45.946Z,3.80
2023-05-24T21:22:55.220Z,3.73
2023-05-24T21:25:04.171Z,4.03
2023-05-24T21:27:14.678Z,4.07
2023-05-24T21:29:23.619Z,3.60
2023-05-24T21:31:32.825Z,4.13
2023-05-24T21:33:42.781Z,3.40
2023-05-24T21:35:51.431Z,4.07
2023-05-24T21:38:00.290Z,4.20
2023-05-24T21:40:09.797Z,4.03
2023-05-24T21:42:20.385Z,3.97
2023-05-24T21:44:29.333Z,3.67
2023-05-24T21:46:38.690Z,4.50
2023-05-24T21:48:47.805Z,4.70
2023-05-24T21:50:56.866Z,4.27
2023-05-24T21:53:05.937Z,3.57
2023-05-24T21:55:14.777Z,4.23
2023-05-24T21:57:26.499Z,3.63
2023-05-24T21:59:35.902Z,4.33
2023-05-24T22:01:44.873Z,4.30
2023-05-24T22:03:53.619Z,3.90
2023-05-24T22:06:02.506Z,4.27
2023-05-24T22:08:11.796Z,4.17
2023-05-24T22:10:20.671Z,4.33
2023-05-24T22:12:31.158Z,3.97
2023-05-24T22:14:40.050Z,4.30
2023-05-24T22:16:49.806Z,4.53
2023-05-24T22:18:58.588Z,3.77
2023-05-24T22:21:07.856Z,4.23
2023-05-24T22:23:17.443Z,3.93
2023-05-24T22:25:26.886Z,3.93
2023-05-24T22:27:37.643Z,4.37
2023-05-24T22:29:46.700Z,4.20
2023-05-24T22:31:55.990Z,4.07
2023-05-24T22:34:04.783Z,4.00
2023-05-24T22:36:13.876Z,3.90
2023-05-24T22:38:23.024Z,4.90
2023-05-24T22:40:31.944Z,4.30
2023-05-24T22:42:41.932Z,4.73
2023-05-24T22:44:50.496Z,4.27
2023-05-24T22:47:02.300Z,4.60
2023-05-24T22:49:13.557Z,3.90
2023-05-24T22:51:22.118Z,4.03
2023-05-24T22:53:32.552Z,3.90
2023-05-24T22:55:41.501Z,4.03
2023-05-24T22:57:51.769Z,4.50
2023-05-24T23:00:01.026Z,4.47
2023-05-24T23:02:09.605Z,4.57
2023-05-24T23:04:21.229Z,4.27
2023-05-24T23:06:31.692Z,4.57
2023-05-24T23:08:40.748Z,4.70
2023-05-24T23:10:50.092Z,4.37
2023-05-24T23:13:00.460Z,4.60
2023-05-24T23:15:10.086Z,4.70
2023-05-24T23:17:20.718Z,4.53
2023-05-24T23:19:30.275Z,4.33
2023-05-24T23:21:38.870Z,4.77
2023-05-24T23:23:49.303Z,4.37
2023-05-24T23:25:58.629Z,4.43
2023-05-24T23:28:09.766Z,4.77
2023-05-24T23:30:18.620Z,4.37
2023-05-24T23:32:27.292Z,4.20
2023-05-24T23:34:36.727Z,4.70
2023-05-24T23:36:46.973Z,4.50
2023-05-24T23:38:55.990Z,4.17
2023-05-24T23:41:04.956Z,4.60
2023-05-24T23:43:15.118Z,4.50
2023-05-24T23:45:24.064Z,4.10
2023-05-24T23:47:33.075Z,4.17
2023-05-24T23:49:42.037Z,4.23
2023-05-24T23:51:51.092Z,4.37
2023-05-24T23:54:00.006Z,4.37
2023-05-24T23:56:08.622Z,4.23
2023-05-24T23:58:18.786Z,4.37
